createdAt,value
2024-05-09T00:01:48.095Z,16.30
2024-05-09T00:04:18.187Z,16.85
2024-05-09T00:06:48.173Z,16.43
2024-05-09T00:09:18.087Z,15.73
2024-05-09T00:11:48.281Z,16.50
2024-05-09T00:14:18.395Z,15.70
2024-05-09T00:16:49.539Z,15.97
2024-05-09T00:19:19.774Z,16.00
2024-05-09T00:21:49.836Z,15.27
2024-05-09T00:24:19.453Z,15.10
2024-05-09T00:26:49.757Z,14.87
2024-05-09T00:29:20.170Z,15.43
2024-05-09T00:31:50.305Z,15.30
2024-05-09T00:34:20.356Z,16.30
2024-05-09T00:36:50.982Z,16.37
2024-05-09T00:39:21.110Z,15.70
2024-05-09T00:41:51.194Z,15.33
2024-05-09T00:44:21.254Z,16.12
2024-05-09T00:46:52.873Z,15.07
2024-05-09T00:49:23.995Z,15.77
2024-05-09T00:51:57.056Z,14.73
2024-05-09T00:54:27.885Z,14.85
2024-05-09T00:56:58.081Z,14.33
2024-05-09T00:59:30.368Z,14.80
2024-05-09T01:02:01.478Z,14.37
2024-05-09T01:04:31.526Z,14.37
2024-05-09T01:07:02.079Z,13.95
2024-05-09T01:09:32.097Z,14.40
2024-05-09T01:12:02.312Z,13.90
2024-05-09T01:14:32.465Z,14.47
2024-05-09T01:17:02.552Z,14.77
2024-05-09T01:19:33.951Z,13.90
2024-05-09T01:22:07.634Z,14.20
2024-05-09T01:24:37.790Z,13.50
2024-05-09T01:27:07.943Z,13.60
2024-05-09T01:29:42.830Z,14.03
2024-05-09T01:32:13.573Z,15.13
2024-05-09T01:34:44.112Z,14.97
2024-05-09T01:37:15.412Z,14.13
2024-05-09T01:39:46.131Z,14.43
2024-05-09T01:42:17.324Z,13.40
2024-05-09T01:44:47.941Z,13.95
2024-05-09T01:47:18.239Z,13.37
2024-05-09T01:49:48.747Z,14.23
2024-05-09T01:52:19.164Z,14.77
2024-05-09T01:54:49.410Z,13.10
2024-05-09T01:57:19.343Z,14.15
2024-05-09T01:59:49.594Z,14.47
2024-05-09T02:02:19.518Z,14.20
2024-05-09T02:04:50.645Z,13.43
2024-05-09T02:07:23.870Z,14.15
2024-05-09T02:09:55.255Z,13.25
2024-05-09T02:12:26.926Z,13.37
2024-05-09T02:14:57.674Z,14.67
2024-05-09T02:17:29.986Z,13.73
2024-05-09T02:20:06.039Z,14.38
2024-05-09T02:22:38.788Z,13.80
2024-05-09T02:25:09.269Z,13.30
2024-05-09T02:27:44.002Z,15.27
2024-05-09T02:30:29.934Z,13.96
2024-05-09T02:32:56.227Z,14.63
2024-05-09T02:35:26.976Z,14.30
2024-05-09T02:38:01.076Z,14.10
2024-05-09T02:40:36.970Z,14.40
2024-05-09T02:43:04.671Z,13.93
2024-05-09T02:45:42.042Z,13.53
2024-05-09T02:48:13.628Z,13.73
2024-05-09T02:50:44.900Z,14.47
2024-05-09T02:53:15.960Z,15.10
2024-05-09T02:55:49.103Z,13.65
2024-05-09T02:58:19.384Z,15.10
2024-05-09T03:00:53.372Z,14.23
2024-05-09T03:03:28.779Z,14.47
2024-05-09T03:05:59.150Z,14.87
2024-05-09T03:08:29.677Z,14.63
2024-05-09T03:11:00.227Z,13.60
2024-05-09T03:13:30.851Z,15.10
2024-05-09T03:16:01.883Z,14.83
2024-05-09T03:18:34.516Z,14.80
2024-05-09T03:21:04.860Z,13.27
2024-05-09T03:23:36.728Z,14.03
2024-05-09T03:26:13.257Z,14.28
2024-05-09T03:28:45.378Z,13.48
2024-05-09T03:31:18.520Z,13.07
2024-05-09T03:33:48.784Z,13.83
2024-05-09T03:36:19.090Z,13.73
2024-05-09T03:38:51.419Z,14.47
2024-05-09T03:41:21.666Z,14.37
2024-05-09T03:43:52.086Z,13.80
2024-05-09T03:46:23.798Z,13.47
2024-05-09T03:48:54.117Z,13.77
2024-05-09T03:51:24.687Z,14.87
2024-05-09T03:53:55.250Z,14.17
2024-05-09T03:56:27.417Z,13.83
2024-05-09T03:59:00.240Z,14.75
2024-05-09T04:01:32.249Z,14.50
2024-05-09T04:04:03.376Z,14.27
2024-05-09T04:06:33.528Z,14.15
2024-05-09T04:09:05.095Z,14.33
2024-05-09T04:11:41.043Z,14.13
2024-05-09T04:14:16.294Z,14.78
2024-05-09T04:16:48.202Z,15.27
2024-05-09T04:19:24.977Z,14.90
2024-05-09T04:21:55.233Z,14.30
2024-05-09T04:24:27.083Z,15.57
2024-05-09T04:26:57.596Z,14.57
2024-05-09T04:29:29.794Z,13.97
2024-05-09T04:31:59.868Z,14.65
2024-05-09T04:34:34.026Z,13.70
2024-05-09T04:37:05.183Z,14.10
2024-05-09T04:39:35.733Z,14.00
2024-05-09T04:42:11.463Z,14.73
2024-05-09T04:44:44.263Z,14.03
2024-05-09T04:47:15.084Z,15.80
2024-05-09T04:49:46.839Z,15.57
2024-05-09T04:52:17.269Z,16.07
2024-05-09T04:54:47.852Z,14.47
2024-05-09T04:57:18.623Z,15.07
2024-05-09T04:59:52.422Z,15.07
2024-05-09T05:02:27.091Z,14.60
2024-05-09T05:04:59.433Z,14.87
2024-05-09T05:07:31.727Z,14.27
2024-05-09T05:10:03.280Z,14.90
2024-05-09T05:12:52.048Z,15.63
2024-05-09T05:15:23.793Z,14.53
2024-05-09T05:17:54.375Z,15.67
2024-05-09T05:20:33.041Z,16.85
2024-05-09T05:22:56.289Z,17.93
2024-05-09T05:25:26.358Z,17.47
2024-05-09T05:27:56.847Z,18.20
2024-05-09T05:30:32.499Z,18.85
2024-05-09T05:33:00.617Z,20.08
2024-05-09T05:35:35.656Z,21.80
2024-05-09T05:38:09.198Z,21.80
2024-05-09T05:40:42.991Z,21.60
2024-05-09T05:43:23.332Z,21.83
2024-05-09T05:45:51.565Z,21.30
2024-05-09T05:48:22.112Z,23.13
2024-05-09T05:50:52.688Z,23.13
2024-05-09T05:53:24.292Z,24.10
2024-05-09T05:55:54.761Z,21.90
2024-05-09T05:58:26.646Z,23.10
2024-05-09T06:00:56.913Z,21.87
2024-05-09T06:03:31.788Z,22.37
2024-05-09T06:06:04.363Z,21.27
2024-05-09T06:08:34.843Z,21.93
2024-05-09T06:11:05.486Z,20.07
2024-05-09T06:13:35.598Z,21.77
2024-05-09T06:16:07.452Z,21.03
2024-05-09T06:18:37.705Z,21.70
2024-05-09T06:21:08.707Z,21.10
2024-05-09T06:23:51.198Z,20.60
2024-05-09T06:26:21.567Z,20.00
2024-05-09T06:28:57.513Z,20.57
2024-05-09T06:31:27.653Z,21.27
2024-05-09T06:33:58.818Z,21.97
2024-05-09T06:36:28.716Z,20.43
2024-05-09T06:38:58.919Z,22.03
2024-05-09T06:41:29.845Z,23.05
2024-05-09T06:44:00.366Z,22.37
2024-05-09T06:46:36.474Z,23.50
2024-05-09T06:49:08.937Z,22.33
2024-05-09T06:51:43.095Z,22.77
2024-05-09T06:54:13.522Z,21.70
2024-05-09T06:56:44.541Z,23.20
2024-05-09T06:59:16.266Z,21.60
2024-05-09T07:01:46.724Z,22.63
2024-05-09T07:04:17.140Z,20.87
2024-05-09T07:06:53.238Z,21.37
2024-05-09T07:09:23.528Z,21.95
2024-05-09T07:11:56.804Z,21.07
2024-05-09T07:14:27.213Z,20.02
2024-05-09T07:17:03.811Z,21.17
2024-05-09T07:19:37.219Z,20.20
2024-05-09T07:22:11.867Z,20.70
2024-05-09T07:24:42.344Z,20.27
2024-05-09T07:27:14.185Z,20.40
2024-05-09T07:29:47.416Z,20.10
2024-05-09T07:32:28.740Z,19.17
2024-05-09T07:34:55.294Z,19.00
2024-05-09T07:37:25.450Z,18.03
2024-05-09T07:39:58.171Z,18.67
2024-05-09T07:42:27.962Z,18.25
2024-05-09T07:45:14.857Z,18.65
2024-05-09T07:48:57.523Z,17.70
2024-05-09T07:52:00.963Z,17.77
2024-05-09T07:53:33.464Z,17.57
2024-05-09T07:55:09.780Z,15.93
2024-05-09T07:57:42.916Z,13.63
2024-05-09T08:00:20.238Z,13.60
2024-05-09T08:02:46.545Z,15.37
2024-05-09T08:05:16.889Z,12.90
2024-05-09T08:07:47.518Z,12.83
2024-05-09T08:10:22.231Z,14.60
2024-05-09T08:12:49.887Z,15.00
2024-05-09T08:15:20.210Z,13.50
2024-05-09T08:17:53.489Z,14.43
2024-05-09T08:20:30.955Z,14.53
2024-05-09T08:22:55.464Z,15.07
2024-05-09T08:25:25.718Z,13.77
2024-05-09T08:28:01.062Z,14.10
2024-05-09T08:30:37.181Z,14.65
2024-05-09T08:33:07.791Z,14.03
2024-05-09T08:35:38.611Z,11.60
2024-05-09T08:38:09.978Z,11.83
2024-05-09T08:40:40.228Z,12.47
2024-05-09T08:43:13.069Z,13.77
2024-05-09T08:45:45.292Z,13.27
2024-05-09T08:48:17.102Z,13.80
2024-05-09T08:50:48.536Z,13.57
2024-05-09T08:53:19.424Z,13.58
2024-05-09T08:55:52.023Z,13.37
2024-05-09T08:58:22.590Z,13.38
2024-05-09T09:00:53.561Z,13.63
2024-05-09T09:03:27.673Z,13.20
2024-05-09T09:06:06.285Z,14.33
2024-05-09T09:08:37.800Z,13.97
2024-05-09T09:11:08.490Z,13.95
2024-05-09T09:13:39.220Z,14.05
2024-05-09T09:16:12.866Z,13.20
2024-05-09T09:18:46.280Z,14.30
2024-05-09T09:21:16.454Z,14.27
2024-05-09T09:23:46.620Z,13.67
2024-05-09T09:26:19.741Z,13.63
2024-05-09T09:28:50.109Z,13.53
2024-05-09T09:31:20.924Z,13.57
2024-05-09T09:33:51.152Z,13.00
2024-05-09T09:36:21.609Z,13.18
2024-05-09T09:38:53.437Z,14.70
2024-05-09T09:41:26.713Z,13.83
2024-05-09T09:43:58.733Z,13.28
2024-05-09T09:46:30.237Z,14.43
2024-05-09T09:49:01.363Z,14.50
2024-05-09T09:51:33.507Z,14.38
2024-05-09T09:54:06.892Z,14.30
2024-05-09T09:56:39.619Z,14.00
2024-05-09T09:59:10.452Z,13.67
2024-05-09T10:01:41.017Z,14.40
2024-05-09T10:04:16.079Z,15.14
2024-05-09T10:06:52.165Z,12.50
2024-05-09T10:09:22.666Z,13.22
2024-05-09T10:11:59.726Z,14.53
2024-05-09T10:14:24.901Z,13.10
2024-05-09T10:16:58.105Z,12.60
2024-05-09T10:19:29.046Z,13.47
2024-05-09T10:22:06.136Z,12.50
2024-05-09T10:24:50.201Z,13.83
2024-05-09T10:27:30.879Z,13.50
2024-05-09T10:30:06.908Z,14.97
2024-05-09T10:32:42.706Z,13.50
2024-05-09T10:35:15.129Z,14.80
2024-05-09T10:37:47.389Z,15.07
2024-05-09T10:40:25.892Z,14.20
2024-05-09T10:42:51.033Z,13.87
2024-05-09T10:45:21.673Z,14.30
2024-05-09T10:47:52.255Z,15.38
2024-05-09T10:50:28.360Z,14.53
2024-05-09T10:52:55.007Z,15.50
2024-05-09T10:55:25.230Z,14.40
2024-05-09T10:57:55.496Z,16.13
2024-05-09T11:00:36.097Z,15.10
2024-05-09T11:03:04.257Z,16.20
2024-05-09T11:05:35.081Z,13.55
2024-05-09T11:08:06.862Z,14.10
2024-05-09T11:10:37.439Z,14.37
2024-05-09T11:13:07.940Z,14.73
2024-05-09T11:15:41.320Z,14.43
2024-05-09T11:18:15.464Z,13.86
2024-05-09T11:20:45.636Z,14.00
2024-05-09T11:23:15.999Z,13.25
2024-05-09T11:25:58.330Z,13.95
2024-05-09T11:28:29.243Z,15.27
2024-05-09T11:31:10.475Z,15.23
2024-05-09T11:33:43.200Z,13.97
2024-05-09T11:36:14.156Z,13.43
2024-05-09T11:38:44.263Z,14.17
2024-05-09T11:41:20.312Z,15.30
2024-05-09T11:43:50.620Z,14.35
2024-05-09T11:46:20.758Z,16.00
2024-05-09T11:48:51.101Z,13.40
2024-05-09T11:51:21.415Z,16.10
2024-05-09T11:53:51.477Z,15.47
2024-05-09T11:56:22.164Z,15.77
2024-05-09T11:58:52.165Z,14.70
2024-05-09T12:01:25.109Z,15.73
2024-05-09T12:03:55.216Z,16.85
2024-05-09T12:06:25.506Z,15.70
2024-05-09T12:08:56.506Z,14.47
2024-05-09T12:11:26.620Z,16.53
2024-05-09T12:13:56.302Z,15.60
2024-05-09T12:16:26.822Z,15.50
2024-05-09T12:18:57.131Z,15.00
2024-05-09T12:21:27.408Z,13.97
2024-05-09T12:23:57.989Z,14.75
2024-05-09T12:26:28.489Z,15.83
2024-05-09T12:28:58.414Z,15.07
2024-05-09T12:31:28.644Z,15.93
2024-05-09T12:34:00.120Z,14.93
2024-05-09T12:36:31.409Z,14.50
2024-05-09T12:39:01.550Z,13.77
2024-05-09T12:41:31.462Z,15.23
2024-05-09T12:44:01.481Z,15.03
2024-05-09T12:46:31.917Z,14.03
2024-05-09T12:49:02.068Z,15.00
2024-05-09T12:51:32.322Z,14.17
2024-05-09T12:54:02.319Z,13.97
2024-05-09T12:56:33.456Z,14.13
2024-05-09T12:59:03.487Z,14.67
2024-05-09T13:01:33.660Z,13.80
2024-05-09T13:04:03.481Z,14.25
2024-05-09T13:06:33.539Z,14.67
2024-05-09T13:09:03.844Z,13.30
2024-05-09T13:11:33.931Z,13.43
2024-05-09T13:14:05.353Z,14.43
2024-05-09T13:16:35.426Z,14.37
2024-05-09T13:19:05.558Z,13.73
2024-05-09T13:21:35.835Z,13.87
2024-05-09T13:24:08.386Z,14.70
2024-05-09T13:26:38.425Z,14.17
2024-05-09T13:29:08.315Z,13.87
2024-05-09T13:31:38.329Z,13.43
2024-05-09T13:34:09.736Z,12.87
2024-05-09T13:36:40.462Z,12.30
2024-05-09T13:39:10.817Z,13.43
2024-05-09T13:41:40.970Z,12.90
2024-05-09T13:44:11.642Z,12.98
2024-05-09T13:46:41.486Z,13.85
2024-05-09T13:49:13.323Z,12.67
2024-05-09T13:51:43.797Z,12.77
2024-05-09T13:54:13.839Z,12.77
2024-05-09T13:56:43.850Z,13.23
2024-05-09T13:59:13.958Z,13.63
2024-05-09T14:01:44.069Z,13.93
2024-05-09T14:04:14.432Z,14.55
2024-05-09T14:06:45.146Z,14.10
2024-05-09T14:09:15.325Z,14.07
2024-05-09T14:11:45.478Z,14.67
2024-05-09T14:14:15.400Z,15.53
2024-05-09T14:16:45.507Z,13.53
2024-05-09T14:19:15.652Z,14.73
2024-05-09T14:21:45.698Z,14.17
2024-05-09T14:24:15.493Z,14.20
2024-05-09T14:26:46.085Z,15.17
2024-05-09T14:29:16.086Z,14.40
2024-05-09T14:31:46.318Z,15.60
2024-05-09T14:34:16.021Z,14.70
2024-05-09T14:36:46.236Z,14.50
2024-05-09T14:39:16.399Z,13.70
2024-05-09T14:41:46.997Z,12.63
2024-05-09T14:44:17.139Z,13.03
2024-05-09T14:46:47.148Z,13.87
2024-05-09T14:49:17.122Z,12.97
2024-05-09T14:51:49.401Z,13.70
2024-05-09T14:54:19.051Z,14.30
2024-05-09T14:56:49.203Z,13.60
2024-05-09T14:59:19.578Z,13.70
2024-05-09T15:01:49.486Z,12.63
2024-05-09T15:04:19.747Z,13.57
2024-05-09T15:06:50.246Z,13.67
2024-05-09T15:09:20.302Z,13.50
2024-05-09T15:11:50.232Z,13.63
2024-05-09T15:14:20.282Z,13.18
2024-05-09T15:16:50.527Z,14.43
2024-05-09T15:19:20.628Z,13.93
2024-05-09T15:21:50.711Z,14.07
2024-05-09T15:24:20.762Z,13.87
2024-05-09T15:26:51.361Z,13.77
2024-05-09T15:29:21.416Z,14.77
2024-05-09T15:31:51.489Z,14.87
2024-05-09T15:34:21.461Z,14.25
2024-05-09T15:36:51.862Z,15.28
2024-05-09T15:39:23.417Z,13.93
2024-05-09T15:41:54.986Z,15.07
2024-05-09T15:44:26.636Z,15.72
2024-05-09T15:46:56.584Z,12.60
2024-05-09T15:49:26.674Z,13.13
2024-05-09T15:51:56.882Z,14.23
2024-05-09T15:54:27.514Z,12.85
2024-05-09T15:56:57.535Z,12.77
2024-05-09T15:59:27.499Z,12.73
2024-05-09T16:01:57.425Z,12.17
2024-05-09T16:04:27.738Z,12.97
2024-05-09T16:06:58.047Z,12.77
2024-05-09T16:09:28.036Z,11.63
2024-05-09T16:11:57.764Z,11.25
2024-05-09T16:14:27.562Z,11.00
2024-05-09T16:16:57.556Z,12.27
2024-05-09T16:19:27.560Z,11.33
2024-05-09T16:21:58.171Z,11.83
2024-05-09T16:24:27.928Z,11.03
2024-05-09T16:26:58.150Z,10.57
2024-05-09T16:29:28.073Z,11.20
2024-05-09T16:31:58.008Z,10.63
2024-05-09T16:34:29.465Z,11.00
2024-05-09T16:37:00.182Z,10.53
2024-05-09T16:39:30.175Z,10.50
2024-05-09T16:41:59.914Z,10.15
2024-05-09T16:44:31.016Z,10.17
2024-05-09T16:47:01.225Z,9.20
2024-05-09T16:49:31.215Z,9.87
2024-05-09T16:52:00.934Z,11.05
2024-05-09T16:54:30.828Z,9.50
2024-05-09T16:57:00.820Z,9.87
2024-05-09T16:59:31.014Z,11.20
2024-05-09T17:02:03.594Z,10.05
2024-05-09T17:04:33.820Z,11.47
2024-05-09T17:07:03.940Z,11.00
2024-05-09T17:09:33.547Z,11.65
2024-05-09T17:12:03.313Z,11.15
2024-05-09T17:14:33.293Z,11.40
2024-05-09T17:17:03.705Z,10.00
2024-05-09T17:19:33.687Z,11.00
2024-05-09T17:22:03.692Z,11.35
2024-05-09T17:24:33.623Z,10.53
2024-05-09T17:27:03.700Z,11.83
2024-05-09T17:29:33.791Z,11.30
2024-05-09T17:32:03.797Z,9.87
2024-05-09T17:34:33.654Z,11.70
2024-05-09T17:37:03.850Z,9.97
2024-05-09T17:39:34.124Z,10.53
2024-05-09T17:42:04.029Z,10.53
2024-05-09T17:44:33.923Z,10.70
2024-05-09T17:47:04.673Z,10.17
2024-05-09T17:49:34.676Z,9.90
2024-05-09T17:52:07.809Z,10.90
2024-05-09T17:54:38.130Z,9.20
2024-05-09T17:57:09.479Z,10.97
2024-05-09T17:59:39.749Z,11.00
2024-05-09T18:02:11.816Z,10.75
2024-05-09T18:04:41.635Z,11.35
2024-05-09T18:07:12.032Z,10.60
2024-05-09T18:09:44.116Z,10.63
2024-05-09T18:12:15.808Z,10.50
2024-05-09T18:14:45.674Z,11.97
2024-05-09T18:17:15.676Z,11.63
2024-05-09T18:19:46.115Z,11.20
2024-05-09T18:22:16.256Z,10.93
2024-05-09T18:24:46.614Z,11.50
2024-05-09T18:27:16.871Z,11.17
2024-05-09T18:29:46.830Z,11.67
2024-05-09T18:32:16.913Z,11.10
2024-05-09T18:34:46.952Z,12.17
2024-05-09T18:37:17.192Z,10.57
2024-05-09T18:39:47.375Z,11.70
2024-05-09T18:42:16.951Z,11.10
2024-05-09T18:44:47.014Z,11.97
2024-05-09T18:47:20.105Z,9.87
2024-05-09T18:49:49.170Z,11.83
2024-05-09T18:52:18.850Z,11.48
2024-05-09T18:54:48.877Z,11.13
2024-05-09T18:57:18.545Z,11.30
2024-05-09T18:59:48.461Z,10.87
2024-05-09T19:02:18.586Z,12.07
2024-05-09T19:04:49.583Z,12.10
2024-05-09T19:07:19.871Z,12.27
2024-05-09T19:09:50.050Z,12.00
2024-05-09T19:12:19.703Z,11.48
2024-05-09T19:14:49.592Z,12.07
2024-05-09T19:17:19.626Z,12.40
2024-05-09T19:19:51.577Z,12.30
2024-05-09T19:22:21.472Z,12.37
2024-05-09T19:24:51.798Z,12.98
2024-05-09T19:27:21.803Z,12.10
2024-05-09T19:29:53.400Z,12.70
2024-05-09T19:32:23.094Z,13.22
2024-05-09T19:34:52.930Z,14.20
2024-05-09T19:37:22.926Z,13.73
2024-05-09T19:39:52.872Z,13.37
2024-05-09T19:42:22.844Z,13.48
2024-05-09T19:44:52.771Z,15.73
2024-05-09T19:47:22.857Z,13.70
2024-05-09T19:49:53.096Z,15.13
2024-05-09T19:52:23.132Z,13.90
2024-05-09T19:54:53.062Z,14.50
2024-05-09T19:57:23.010Z,15.70
2024-05-09T19:59:52.912Z,16.60
2024-05-09T20:02:23.047Z,14.33
2024-05-09T20:04:53.480Z,15.93
2024-05-09T20:07:23.418Z,16.27
2024-05-09T20:09:53.301Z,17.40
2024-05-09T20:12:23.263Z,16.40
2024-05-09T20:14:52.898Z,15.35
2024-05-09T20:17:22.781Z,16.33
2024-05-09T20:19:52.936Z,16.73
2024-05-09T20:22:22.691Z,16.53
2024-05-09T20:24:52.681Z,16.80
2024-05-09T20:27:22.582Z,17.27
2024-05-09T20:29:52.594Z,18.63
2024-05-09T20:32:22.658Z,18.80
2024-05-09T20:34:52.637Z,17.80
2024-05-09T20:37:22.976Z,18.13
2024-05-09T20:39:52.914Z,18.50
2024-05-09T20:42:22.864Z,19.20
2024-05-09T20:44:53.083Z,18.57
2024-05-09T20:47:23.015Z,19.13
2024-05-09T20:49:53.064Z,18.67
2024-05-09T20:52:22.884Z,20.23
2024-05-09T20:54:53.062Z,19.23
2024-05-09T20:57:23.157Z,18.40
2024-05-09T20:59:53.338Z,19.45
2024-05-09T21:02:23.391Z,19.87
2024-05-09T21:04:53.693Z,18.00
2024-05-09T21:07:23.772Z,18.47
2024-05-09T21:09:53.812Z,18.30
2024-05-09T21:12:23.376Z,20.53
2024-05-09T21:14:53.275Z,20.23
2024-05-09T21:17:23.395Z,20.13
2024-05-09T21:19:53.609Z,21.60
2024-05-09T21:22:23.233Z,19.13
2024-05-09T21:24:52.883Z,21.15
2024-05-09T21:27:24.390Z,21.23
2024-05-09T21:29:54.237Z,20.60
2024-05-09T21:32:24.209Z,21.53
2024-05-09T21:34:54.598Z,20.02
2024-05-09T21:37:24.621Z,20.90
2024-05-09T21:39:54.819Z,19.62
2024-05-09T21:42:24.818Z,19.77
2024-05-09T21:44:55.064Z,21.02
2024-05-09T21:47:25.261Z,21.57
2024-05-09T21:49:55.398Z,20.87
2024-05-09T21:52:25.427Z,21.80
2024-05-09T21:54:55.617Z,21.57
2024-05-09T21:57:25.385Z,21.40
2024-05-09T21:59:55.385Z,21.20
2024-05-09T22:02:25.651Z,23.20
2024-05-09T22:04:55.951Z,20.43
2024-05-09T22:07:26.311Z,22.98
2024-05-09T22:09:56.261Z,21.83
2024-05-09T22:12:25.861Z,22.35
2024-05-09T22:14:55.864Z,21.77
2024-05-09T22:17:25.892Z,22.40
2024-05-09T22:19:55.882Z,21.67
2024-05-09T22:22:26.738Z,22.20
2024-05-09T22:24:57.116Z,20.23
2024-05-09T22:27:27.207Z,19.97
2024-05-09T22:29:57.177Z,21.97
2024-05-09T22:32:27.216Z,20.50
2024-05-09T22:34:57.228Z,21.27
2024-05-09T22:37:27.196Z,20.27
2024-05-09T22:39:57.411Z,20.00
2024-05-09T22:42:28.388Z,21.70
2024-05-09T22:44:58.360Z,21.50
2024-05-09T22:47:28.289Z,21.90
2024-05-09T22:49:58.457Z,21.25
2024-05-09T22:52:28.402Z,21.27
2024-05-09T22:54:58.335Z,21.57
2024-05-09T22:57:28.723Z,23.27
2024-05-09T22:59:58.723Z,21.50
2024-05-09T23:02:28.741Z,22.47
2024-05-09T23:04:59.034Z,21.00
2024-05-09T23:07:28.987Z,22.00
2024-05-09T23:09:58.910Z,22.73
2024-05-09T23:12:28.876Z,20.17
2024-05-09T23:14:59.155Z,23.00
2024-05-09T23:17:28.996Z,21.85
2024-05-09T23:19:58.972Z,22.63
2024-05-09T23:22:28.879Z,21.77
2024-05-09T23:24:59.153Z,22.15
2024-05-09T23:27:29.065Z,22.97
2024-05-09T23:29:59.037Z,21.90
2024-05-09T23:32:29.224Z,22.43
2024-05-09T23:34:59.305Z,23.27
2024-05-09T23:37:29.288Z,23.73
2024-05-09T23:39:59.278Z,23.40
2024-05-09T23:42:29.350Z,23.57
2024-05-09T23:44:59.211Z,22.67
2024-05-09T23:47:28.975Z,23.35
2024-05-09T23:49:59.275Z,24.95
2024-05-09T23:52:29.360Z,24.17
2024-05-09T23:54:59.467Z,24.50
2024-05-09T23:57:29.341Z,24.75
